sensor_id;sensor_type;location;lat;lon;timestamp;pressure;altitude;pressure_sealevel;temperature;humidity
44027;BME280;29696;55.698;37.460;2023-05-02T00:00:51;100014.81;;;2.38;77.92
44027;BME280;29696;55.698;37.460;2023-05-02T00:03:17;100021.94;;;2.34;78.30
44027;BME280;29696;55.698;37.460;2023-05-02T00:05:43;100021.13;;;2.34;78.17
44027;BME280;29696;55.698;37.460;2023-05-02T00:08:10;100022.16;;;2.29;77.92
44027;BME280;29696;55.698;37.460;2023-05-02T00:10:37;100028.50;;;2.24;77.80
44027;BME280;29696;55.698;37.460;2023-05-02T00:13:04;100037.06;;;2.27;78.03
44027;BME280;29696;55.698;37.460;2023-05-02T00:15:30;100034.44;;;2.27;78.65
44027;BME280;29696;55.698;37.460;2023-05-02T00:17:57;100038.72;;;2.28;78.23
44027;BME280;29696;55.698;37.460;2023-05-02T00:20:23;100037.81;;;2.29;78.37
44027;BME280;29696;55.698;37.460;2023-05-02T00:22:50;100036.31;;;2.24;77.94
44027;BME280;29696;55.698;37.460;2023-05-02T00:25:16;100055.44;;;2.24;78.21
44027;BME280;29696;55.698;37.460;2023-05-02T00:27:43;100052.06;;;2.22;78.22
44027;BME280;29696;55.698;37.460;2023-05-02T00:30:12;100049.44;;;2.22;78.29
44027;BME280;29696;55.698;37.460;2023-05-02T00:32:40;100053.09;;;2.18;78.37
44027;BME280;29696;55.698;37.460;2023-05-02T00:35:07;100055.56;;;2.21;78.34
44027;BME280;29696;55.698;37.460;2023-05-02T00:37:34;100058.16;;;2.21;78.03
44027;BME280;29696;55.698;37.460;2023-05-02T00:40:01;100067.84;;;2.19;77.89
44027;BME280;29696;55.698;37.460;2023-05-02T00:42:32;100064.31;;;2.20;78.62
44027;BME280;29696;55.698;37.460;2023-05-02T00:45:04;100065.78;;;2.26;78.73
44027;BME280;29696;55.698;37.460;2023-05-02T00:47:32;100069.47;;;2.22;78.19
44027;BME280;29696;55.698;37.460;2023-05-02T00:49:58;100069.31;;;2.25;78.12
44027;BME280;29696;55.698;37.460;2023-05-02T00:52:27;100072.50;;;2.32;78.79
44027;BME280;29696;55.698;37.460;2023-05-02T00:54:54;100074.16;;;2.33;78.29
44027;BME280;29696;55.698;37.460;2023-05-02T00:57:21;100071.84;;;2.26;77.90
44027;BME280;29696;55.698;37.460;2023-05-02T00:59:48;100073.75;;;2.23;77.61
44027;BME280;29696;55.698;37.460;2023-05-02T01:02:33;100082.41;;;2.23;77.99
44027;BME280;29696;55.698;37.460;2023-05-02T01:05:35;100081.78;;;2.18;78.41
44027;BME280;29696;55.698;37.460;2023-05-02T01:08:18;100086.28;;;2.15;78.75
44027;BME280;29696;55.698;37.460;2023-05-02T01:11:07;100090.53;;;2.17;79.06
44027;BME280;29696;55.698;37.460;2023-05-02T01:13:38;100096.81;;;2.13;78.79
44027;BME280;29696;55.698;37.460;2023-05-02T01:16:06;100099.03;;;2.21;78.88
44027;BME280;29696;55.698;37.460;2023-05-02T01:18:37;100100.91;;;2.19;78.96
44027;BME280;29696;55.698;37.460;2023-05-02T01:21:07;100093.22;;;2.16;78.23
44027;BME280;29696;55.698;37.460;2023-05-02T01:24:11;100105.75;;;2.26;78.61
44027;BME280;29696;55.698;37.460;2023-05-02T01:29:56;100115.31;;;2.07;78.11
44027;BME280;29696;55.698;37.460;2023-05-02T01:32:25;100100.81;;;2.01;78.55
44027;BME280;29696;55.698;37.460;2023-05-02T01:34:53;100117.78;;;2.10;79.46
44027;BME280;29696;55.698;37.460;2023-05-02T01:37:22;100121.16;;;2.12;78.82
44027;BME280;29696;55.698;37.460;2023-05-02T01:39:50;100128.28;;;2.09;78.41
44027;BME280;29696;55.698;37.460;2023-05-02T01:42:18;100134.59;;;2.03;78.20
44027;BME280;29696;55.698;37.460;2023-05-02T01:44:47;100129.88;;;1.92;78.37
44027;BME280;29696;55.698;37.460;2023-05-02T01:47:14;100129.94;;;1.91;78.77
44027;BME280;29696;55.698;37.460;2023-05-02T01:49:42;100134.03;;;1.96;79.34
44027;BME280;29696;55.698;37.460;2023-05-02T01:52:10;100134.81;;;1.98;79.00
44027;BME280;29696;55.698;37.460;2023-05-02T01:54:39;100135.59;;;2.00;79.17
44027;BME280;29696;55.698;37.460;2023-05-02T01:57:08;100148.38;;;2.07;79.02
44027;BME280;29696;55.698;37.460;2023-05-02T01:59:36;100146.59;;;2.07;78.44
44027;BME280;29696;55.698;37.460;2023-05-02T02:02:06;100154.34;;;2.09;78.17
44027;BME280;29696;55.698;37.460;2023-05-02T02:04:36;100150.75;;;2.11;78.38
44027;BME280;29696;55.698;37.460;2023-05-02T02:07:06;100153.38;;;2.11;78.08
44027;BME280;29696;55.698;37.460;2023-05-02T02:09:33;100157.78;;;2.09;78.27
44027;BME280;29696;55.698;37.460;2023-05-02T02:12:10;100152.44;;;2.12;78.60
44027;BME280;29696;55.698;37.460;2023-05-02T02:14:40;100164.72;;;2.10;78.42
44027;BME280;29696;55.698;37.460;2023-05-02T02:17:12;100164.31;;;2.19;78.43
44027;BME280;29696;55.698;37.460;2023-05-02T02:19:41;100173.63;;;2.44;78.29
44027;BME280;29696;55.698;37.460;2023-05-02T02:22:08;100168.84;;;2.54;77.89
44027;BME280;29696;55.698;37.460;2023-05-02T02:24:38;100186.13;;;2.56;77.41
44027;BME280;29696;55.698;37.460;2023-05-02T02:27:05;100184.34;;;2.57;77.28
44027;BME280;29696;55.698;37.460;2023-05-02T02:29:33;100191.34;;;2.56;77.23
44027;BME280;29696;55.698;37.460;2023-05-02T02:32:00;100186.81;;;2.60;77.29
44027;BME280;29696;55.698;37.460;2023-05-02T02:34:26;100188.44;;;2.62;76.73
44027;BME280;29696;55.698;37.460;2023-05-02T02:37:00;100191.34;;;2.75;76.35
44027;BME280;29696;55.698;37.460;2023-05-02T02:40:20;100189.31;;;2.82;76.33
44027;BME280;29696;55.698;37.460;2023-05-02T02:43:02;100195.56;;;2.78;75.89
44027;BME280;29696;55.698;37.460;2023-05-02T02:46:15;100194.44;;;2.83;75.81
44027;BME280;29696;55.698;37.460;2023-05-02T02:49:10;100200.22;;;2.90;75.65
44027;BME280;29696;55.698;37.460;2023-05-02T02:51:48;100200.06;;;2.93;75.87
44027;BME280;29696;55.698;37.460;2023-05-02T02:54:38;100204.84;;;3.75;75.26
44027;BME280;29696;55.698;37.460;2023-05-02T02:57:15;100199.41;;;4.79;72.05
44027;BME280;29696;55.698;37.460;2023-05-02T03:00:16;100206.41;;;6.02;68.22
44027;BME280;29696;55.698;37.460;2023-05-02T03:02:46;100204.69;;;7.01;62.77
44027;BME280;29696;55.698;37.460;2023-05-02T03:05:14;100197.63;;;8.09;58.60
44027;BME280;29696;55.698;37.460;2023-05-02T03:07:41;100194.13;;;9.09;54.89
44027;BME280;29696;55.698;37.460;2023-05-02T03:10:07;100193.06;;;9.95;52.54
44027;BME280;29696;55.698;37.460;2023-05-02T03:12:35;100198.94;;;10.67;50.10
44027;BME280;29696;55.698;37.460;2023-05-02T03:18:38;100202.59;;;12.27;45.78
44027;BME280;29696;55.698;37.460;2023-05-02T03:21:05;100210.97;;;12.94;45.11
44027;BME280;29696;55.698;37.460;2023-05-02T03:23:31;100211.13;;;13.62;43.75
44027;BME280;29696;55.698;37.460;2023-05-02T03:25:58;100215.25;;;14.23;42.22
44027;BME280;29696;55.698;37.460;2023-05-02T03:28:25;100222.19;;;14.90;40.23
44027;BME280;29696;55.698;37.460;2023-05-02T03:30:52;100221.06;;;15.38;38.79
44027;BME280;29696;55.698;37.460;2023-05-02T03:33:20;100228.69;;;15.87;37.64
44027;BME280;29696;55.698;37.460;2023-05-02T03:35:47;100227.97;;;16.47;35.62
44027;BME280;29696;55.698;37.460;2023-05-02T03:38:14;100226.25;;;16.98;34.87
44027;BME280;29696;55.698;37.460;2023-05-02T03:40:41;100229.03;;;17.47;33.91
44027;BME280;29696;55.698;37.460;2023-05-02T03:43:10;100234.66;;;18.02;33.30
44027;BME280;29696;55.698;37.460;2023-05-02T03:45:37;100232.41;;;18.55;31.96
44027;BME280;29696;55.698;37.460;2023-05-02T03:48:03;100236.34;;;19.23;30.40
44027;BME280;29696;55.698;37.460;2023-05-02T03:50:30;100242.44;;;19.71;29.94
44027;BME280;29696;55.698;37.460;2023-05-02T03:52:57;100240.72;;;20.01;29.02
44027;BME280;29696;55.698;37.460;2023-05-02T03:55:41;100247.22;;;20.74;29.07
44027;BME280;29696;55.698;37.460;2023-05-02T03:58:11;100245.19;;;21.06;27.76
44027;BME280;29696;55.698;37.460;2023-05-02T04:00:37;100253.09;;;21.44;26.88
44027;BME280;29696;55.698;37.460;2023-05-02T04:03:06;100242.97;;;22.10;26.24
44027;BME280;29696;55.698;37.460;2023-05-02T04:05:34;100246.94;;;22.36;25.77
44027;BME280;29696;55.698;37.460;2023-05-02T04:08:01;100254.97;;;22.92;25.04
44027;BME280;29696;55.698;37.460;2023-05-02T04:10:29;100258.31;;;23.42;24.55
44027;BME280;29696;55.698;37.460;2023-05-02T04:12:59;100266.94;;;23.86;23.99
44027;BME280;29696;55.698;37.460;2023-05-02T04:15:31;100263.84;;;24.35;23.32
44027;BME280;29696;55.698;37.460;2023-05-02T04:17:59;100273.81;;;24.62;23.09
44027;BME280;29696;55.698;37.460;2023-05-02T04:20:26;100271.94;;;24.69;22.36
44027;BME280;29696;55.698;37.460;2023-05-02T04:22:54;100260.38;;;25.06;22.10
44027;BME280;29696;55.698;37.460;2023-05-02T04:25:20;100278.09;;;25.61;21.64
44027;BME280;29696;55.698;37.460;2023-05-02T04:27:48;100264.31;;;26.01;21.12
44027;BME280;29696;55.698;37.460;2023-05-02T04:30:18;100268.25;;;26.55;20.54
44027;BME280;29696;55.698;37.460;2023-05-02T04:32:53;100272.66;;;27.11;20.01
44027;BME280;29696;55.698;37.460;2023-05-02T04:35:20;100275.94;;;27.50;19.78
44027;BME280;29696;55.698;37.460;2023-05-02T04:37:47;100279.28;;;27.82;19.55
44027;BME280;29696;55.698;37.460;2023-05-02T04:40:14;100283.44;;;28.08;19.39
44027;BME280;29696;55.698;37.460;2023-05-02T04:42:44;100277.97;;;28.50;18.78
44027;BME280;29696;55.698;37.460;2023-05-02T04:45:14;100285.16;;;28.56;18.97
44027;BME280;29696;55.698;37.460;2023-05-02T04:47:43;100284.69;;;29.06;18.43
44027;BME280;29696;55.698;37.460;2023-05-02T04:50:09;100287.16;;;29.48;17.84
44027;BME280;29696;55.698;37.460;2023-05-02T04:52:36;100298.56;;;29.74;17.47
44027;BME280;29696;55.698;37.460;2023-05-02T04:55:04;100302.97;;;30.09;17.47
44027;BME280;29696;55.698;37.460;2023-05-02T04:57:32;100287.75;;;30.24;16.44
44027;BME280;29696;55.698;37.460;2023-05-02T05:00:00;100301.78;;;30.33;16.45
44027;BME280;29696;55.698;37.460;2023-05-02T05:02:33;100294.19;;;30.35;16.40
44027;BME280;29696;55.698;37.460;2023-05-02T05:05:00;100299.03;;;30.33;16.67
44027;BME280;29696;55.698;37.460;2023-05-02T05:07:30;100305.50;;;30.61;15.67
44027;BME280;29696;55.698;37.460;2023-05-02T05:09:57;100302.31;;;30.86;15.68
44027;BME280;29696;55.698;37.460;2023-05-02T05:12:30;100297.97;;;31.07;16.51
44027;BME280;29696;55.698;37.460;2023-05-02T05:14:56;100299.63;;;31.52;15.64
44027;BME280;29696;55.698;37.460;2023-05-02T05:17:25;100297.88;;;32.22;15.34
44027;BME280;29696;55.698;37.460;2023-05-02T05:19:52;100300.84;;;32.20;15.80
44027;BME280;29696;55.698;37.460;2023-05-02T05:22:19;100303.03;;;31.91;15.02
44027;BME280;29696;55.698;37.460;2023-05-02T05:24:53;100309.94;;;33.11;15.49
44027;BME280;29696;55.698;37.460;2023-05-02T05:27:20;100309.06;;;32.53;14.71
44027;BME280;29696;55.698;37.460;2023-05-02T05:29:47;100310.91;;;32.89;14.62
44027;BME280;29696;55.698;37.460;2023-05-02T05:32:14;100309.94;;;33.11;14.53
44027;BME280;29696;55.698;37.460;2023-05-02T05:34:42;100301.03;;;33.36;14.20
44027;BME280;29696;55.698;37.460;2023-05-02T05:37:09;100309.91;;;33.69;13.73
44027;BME280;29696;55.698;37.460;2023-05-02T05:39:35;100305.28;;;33.90;13.64
44027;BME280;29696;55.698;37.460;2023-05-02T05:42:04;100314.34;;;34.16;12.21
44027;BME280;29696;55.698;37.460;2023-05-02T05:44:31;100312.16;;;34.53;12.34
44027;BME280;29696;55.698;37.460;2023-05-02T05:46:59;100310.72;;;34.82;12.50
44027;BME280;29696;55.698;37.460;2023-05-02T05:49:26;100304.38;;;35.07;11.39
44027;BME280;29696;55.698;37.460;2023-05-02T05:51:53;100301.63;;;34.96;11.69
44027;BME280;29696;55.698;37.460;2023-05-02T05:54:20;100303.25;;;35.13;11.44
44027;BME280;29696;55.698;37.460;2023-05-02T05:56:46;100304.72;;;35.50;11.18
44027;BME280;29696;55.698;37.460;2023-05-02T05:59:16;100301.22;;;35.83;11.42
44027;BME280;29696;55.698;37.460;2023-05-02T06:01:43;100300.47;;;35.18;12.09
44027;BME280;29696;55.698;37.460;2023-05-02T06:04:10;100308.72;;;35.18;11.45
44027;BME280;29696;55.698;37.460;2023-05-02T06:06:41;100308.13;;;35.26;11.60
44027;BME280;29696;55.698;37.460;2023-05-02T06:09:07;100305.44;;;35.11;11.08
44027;BME280;29696;55.698;37.460;2023-05-02T06:11:36;100309.50;;;35.29;9.92
44027;BME280;29696;55.698;37.460;2023-05-02T06:14:03;100302.16;;;35.04;10.44
44027;BME280;29696;55.698;37.460;2023-05-02T06:16:30;100300.81;;;34.96;9.54
44027;BME280;29696;55.698;37.460;2023-05-02T06:18:57;100296.13;;;35.02;9.95
44027;BME280;29696;55.698;37.460;2023-05-02T06:21:23;100300.31;;;33.92;10.60
44027;BME280;29696;55.698;37.460;2023-05-02T06:23:49;100304.19;;;34.47;11.12
44027;BME280;29696;55.698;37.460;2023-05-02T06:26:16;100297.47;;;35.14;10.84
44027;BME280;29696;55.698;37.460;2023-05-02T06:28:42;100296.16;;;35.61;10.86
44027;BME280;29696;55.698;37.460;2023-05-02T06:31:09;100301.88;;;35.15;11.11
44027;BME280;29696;55.698;37.460;2023-05-02T06:33:35;100307.22;;;34.35;11.25
44027;BME280;29696;55.698;37.460;2023-05-02T06:36:02;100307.59;;;33.40;11.62
44027;BME280;29696;55.698;37.460;2023-05-02T06:38:29;100306.66;;;33.97;11.76
44027;BME280;29696;55.698;37.460;2023-05-02T06:40:55;100312.09;;;34.79;11.03
44027;BME280;29696;55.698;37.460;2023-05-02T06:43:21;100304.09;;;35.63;10.18
44027;BME280;29696;55.698;37.460;2023-05-02T06:45:51;100312.78;;;36.54;9.68
44027;BME280;29696;55.698;37.460;2023-05-02T06:48:18;100307.34;;;36.44;9.92
44027;BME280;29696;55.698;37.460;2023-05-02T06:50:44;100315.63;;;36.73;9.26
44027;BME280;29696;55.698;37.460;2023-05-02T06:53:11;100297.22;;;36.68;8.98
44027;BME280;29696;55.698;37.460;2023-05-02T06:55:37;100309.34;;;36.04;9.29
44027;BME280;29696;55.698;37.460;2023-05-02T06:58:04;100310.09;;;36.15;10.46
44027;BME280;29696;55.698;37.460;2023-05-02T07:00:30;100297.44;;;36.43;9.74
44027;BME280;29696;55.698;37.460;2023-05-02T07:02:56;100305.56;;;36.29;8.76
44027;BME280;29696;55.698;37.460;2023-05-02T07:05:23;100308.47;;;36.43;8.65
44027;BME280;29696;55.698;37.460;2023-05-02T07:07:49;100296.81;;;36.51;8.46
44027;BME280;29696;55.698;37.460;2023-05-02T07:10:16;100300.69;;;36.50;9.28
44027;BME280;29696;55.698;37.460;2023-05-02T07:12:42;100304.66;;;36.39;8.01
44027;BME280;29696;55.698;37.460;2023-05-02T07:15:08;100314.88;;;36.33;8.81
44027;BME280;29696;55.698;37.460;2023-05-02T07:17:35;100306.00;;;35.67;8.90
44027;BME280;29696;55.698;37.460;2023-05-02T07:20:02;100309.22;;;35.30;10.28
44027;BME280;29696;55.698;37.460;2023-05-02T07:22:29;100312.47;;;35.42;9.53
44027;BME280;29696;55.698;37.460;2023-05-02T07:24:57;100311.81;;;35.66;9.76
44027;BME280;29696;55.698;37.460;2023-05-02T07:27:23;100304.59;;;35.75;9.32
44027;BME280;29696;55.698;37.460;2023-05-02T07:29:50;100301.94;;;36.33;9.34
44027;BME280;29696;55.698;37.460;2023-05-02T07:32:17;100303.03;;;35.54;9.09
44027;BME280;29696;55.698;37.460;2023-05-02T07:34:43;100302.19;;;34.98;9.31
44027;BME280;29696;55.698;37.460;2023-05-02T07:37:10;100297.34;;;34.49;10.31
44027;BME280;29696;55.698;37.460;2023-05-02T07:39:37;100294.28;;;34.71;9.80
44027;BME280;29696;55.698;37.460;2023-05-02T07:42:03;100299.16;;;35.65;10.92
44027;BME280;29696;55.698;37.460;2023-05-02T07:44:31;100298.78;;;36.16;9.97
44027;BME280;29696;55.698;37.460;2023-05-02T07:46:58;100290.47;;;36.26;9.65
44027;BME280;29696;55.698;37.460;2023-05-02T07:49:25;100294.22;;;36.36;8.98
44027;BME280;29696;55.698;37.460;2023-05-02T07:51:51;100296.34;;;36.73;8.78
44027;BME280;29696;55.698;37.460;2023-05-02T07:54:18;100295.66;;;37.10;9.03
44027;BME280;29696;55.698;37.460;2023-05-02T07:56:45;100286.94;;;34.26;10.01
44027;BME280;29696;55.698;37.460;2023-05-02T07:59:15;100282.44;;;30.52;11.25
44027;BME280;29696;55.698;37.460;2023-05-02T08:01:41;100294.44;;;30.89;11.40
44027;BME280;29696;55.698;37.460;2023-05-02T08:04:08;100285.44;;;31.33;10.82
44027;BME280;29696;55.698;37.460;2023-05-02T08:06:38;100286.63;;;30.59;11.29
44027;BME280;29696;55.698;37.460;2023-05-02T08:09:04;100278.94;;;30.06;12.53
44027;BME280;29696;55.698;37.460;2023-05-02T08:11:30;100282.13;;;29.69;11.60
44027;BME280;29696;55.698;37.460;2023-05-02T08:13:57;100281.78;;;26.98;13.07
44027;BME280;29696;55.698;37.460;2023-05-02T08:16:23;100275.44;;;27.04;13.43
44027;BME280;29696;55.698;37.460;2023-05-02T08:18:49;100277.72;;;27.56;14.62
44027;BME280;29696;55.698;37.460;2023-05-02T08:21:16;100281.00;;;28.18;14.55
44027;BME280;29696;55.698;37.460;2023-05-02T08:23:42;100282.00;;;27.64;14.50
44027;BME280;29696;55.698;37.460;2023-05-02T08:26:10;100278.06;;;26.93;13.66
44027;BME280;29696;55.698;37.460;2023-05-02T08:28:36;100268.81;;;25.75;13.86
44027;BME280;29696;55.698;37.460;2023-05-02T08:31:03;100272.59;;;24.18;15.01
44027;BME280;29696;55.698;37.460;2023-05-02T08:33:29;100273.13;;;22.49;15.86
44027;BME280;29696;55.698;37.460;2023-05-02T08:35:56;100280.50;;;20.88;17.54
44027;BME280;29696;55.698;37.460;2023-05-02T08:38:22;100270.38;;;19.77;19.76
44027;BME280;29696;55.698;37.460;2023-05-02T08:40:48;100269.09;;;19.02;19.48
44027;BME280;29696;55.698;37.460;2023-05-02T08:43:15;100275.09;;;18.32;20.04
44027;BME280;29696;55.698;37.460;2023-05-02T08:45:43;100276.41;;;17.87;21.27
44027;BME280;29696;55.698;37.460;2023-05-02T08:48:12;100279.63;;;17.40;21.70
44027;BME280;29696;55.698;37.460;2023-05-02T08:50:41;100264.38;;;16.82;21.62
44027;BME280;29696;55.698;37.460;2023-05-02T08:53:11;100273.25;;;16.38;23.23
44027;BME280;29696;55.698;37.460;2023-05-02T08:55:40;100267.22;;;16.10;22.86
44027;BME280;29696;55.698;37.460;2023-05-02T08:58:07;100254.22;;;15.89;22.59
44027;BME280;29696;55.698;37.460;2023-05-02T09:00:38;100257.84;;;15.52;23.08
44027;BME280;29696;55.698;37.460;2023-05-02T09:03:25;100268.50;;;15.25;23.86
44027;BME280;29696;55.698;37.460;2023-05-02T09:08:48;100257.97;;;15.05;26.77
44027;BME280;29696;55.698;37.460;2023-05-02T09:11:15;100256.25;;;15.14;25.87
44027;BME280;29696;55.698;37.460;2023-05-02T09:13:49;100258.84;;;15.24;26.39
44027;BME280;29696;55.698;37.460;2023-05-02T09:16:23;100264.00;;;15.25;25.85
44027;BME280;29696;55.698;37.460;2023-05-02T09:18:56;100258.97;;;14.95;23.97
44027;BME280;29696;55.698;37.460;2023-05-02T09:21:39;100259.78;;;14.68;24.88
44027;BME280;29696;55.698;37.460;2023-05-02T09:24:20;100259.56;;;14.51;25.44
44027;BME280;29696;55.698;37.460;2023-05-02T09:26:57;100247.50;;;14.47;26.51
44027;BME280;29696;55.698;37.460;2023-05-02T09:29:26;100246.41;;;14.40;28.63
44027;BME280;29696;55.698;37.460;2023-05-02T09:31:53;100250.47;;;14.54;30.46
44027;BME280;29696;55.698;37.460;2023-05-02T09:34:19;100237.44;;;14.60;26.88
44027;BME280;29696;55.698;37.460;2023-05-02T09:36:47;100245.06;;;14.73;27.01
44027;BME280;29696;55.698;37.460;2023-05-02T09:39:21;100251.94;;;14.76;28.19
44027;BME280;29696;55.698;37.460;2023-05-02T09:41:48;100244.66;;;14.68;28.08
44027;BME280;29696;55.698;37.460;2023-05-02T09:44:19;100252.50;;;14.70;28.50
44027;BME280;29696;55.698;37.460;2023-05-02T09:46:55;100245.91;;;14.74;27.00
44027;BME280;29696;55.698;37.460;2023-05-02T09:49:41;100240.03;;;14.70;25.75
44027;BME280;29696;55.698;37.460;2023-05-02T09:52:14;100236.91;;;14.37;25.92
44027;BME280;29696;55.698;37.460;2023-05-02T09:54:41;100226.59;;;14.25;26.64
44027;BME280;29696;55.698;37.460;2023-05-02T09:57:08;100231.75;;;14.16;26.28
44027;BME280;29696;55.698;37.460;2023-05-02T09:59:36;100236.81;;;13.90;28.31
44027;BME280;29696;55.698;37.460;2023-05-02T10:02:03;100222.56;;;13.72;27.08
44027;BME280;29696;55.698;37.460;2023-05-02T10:04:31;100221.59;;;13.63;27.65
44027;BME280;29696;55.698;37.460;2023-05-02T10:06:59;100216.44;;;13.72;26.35
44027;BME280;29696;55.698;37.460;2023-05-02T10:09:28;100223.81;;;13.87;27.92
44027;BME280;29696;55.698;37.460;2023-05-02T10:11:59;100224.22;;;14.02;27.23
44027;BME280;29696;55.698;37.460;2023-05-02T10:14:30;100216.66;;;14.17;27.96
44027;BME280;29696;55.698;37.460;2023-05-02T10:17:21;100206.53;;;14.40;28.52
44027;BME280;29696;55.698;37.460;2023-05-02T10:20:04;100214.81;;;14.27;26.87
44027;BME280;29696;55.698;37.460;2023-05-02T10:22:35;100208.84;;;14.15;27.25
44027;BME280;29696;55.698;37.460;2023-05-02T10:25:02;100207.13;;;14.24;29.82
44027;BME280;29696;55.698;37.460;2023-05-02T10:27:33;100197.47;;;14.33;28.97
44027;BME280;29696;55.698;37.460;2023-05-02T10:30:00;100206.66;;;14.48;28.93
44027;BME280;29696;55.698;37.460;2023-05-02T10:32:32;100201.31;;;14.58;26.98
44027;BME280;29696;55.698;37.460;2023-05-02T10:35:04;100202.03;;;14.60;26.56
44027;BME280;29696;55.698;37.460;2023-05-02T10:37:34;100198.66;;;14.48;25.86
44027;BME280;29696;55.698;37.460;2023-05-02T10:40:02;100199.28;;;14.23;25.55
44027;BME280;29696;55.698;37.460;2023-05-02T10:42:31;100195.53;;;14.15;26.74
44027;BME280;29696;55.698;37.460;2023-05-02T10:45:02;100193.97;;;14.23;28.03
44027;BME280;29696;55.698;37.460;2023-05-02T10:47:30;100193.28;;;14.30;26.96
44027;BME280;29696;55.698;37.460;2023-05-02T10:50:01;100196.19;;;14.37;26.84
44027;BME280;29696;55.698;37.460;2023-05-02T10:52:37;100190.44;;;14.32;26.94
44027;BME280;29696;55.698;37.460;2023-05-02T10:55:29;100190.97;;;14.45;27.18
44027;BME280;29696;55.698;37.460;2023-05-02T10:58:19;100188.44;;;14.53;28.21
44027;BME280;29696;55.698;37.460;2023-05-02T11:00:46;100189.28;;;14.44;27.40
44027;BME280;29696;55.698;37.460;2023-05-02T11:03:13;100181.59;;;14.51;28.76
44027;BME280;29696;55.698;37.460;2023-05-02T11:06:05;100187.09;;;14.77;28.55
44027;BME280;29696;55.698;37.460;2023-05-02T11:08:32;100180.00;;;14.68;28.64
44027;BME280;29696;55.698;37.460;2023-05-02T11:11:37;100181.16;;;14.93;29.12
44027;BME280;29696;55.698;37.460;2023-05-02T11:14:04;100170.47;;;14.75;28.43
44027;BME280;29696;55.698;37.460;2023-05-02T11:17:11;100170.63;;;14.91;27.34
44027;BME280;29696;55.698;37.460;2023-05-02T11:22:44;100166.59;;;14.59;27.34
44027;BME280;29696;55.698;37.460;2023-05-02T11:25:34;100168.56;;;14.57;28.01
44027;BME280;29696;55.698;37.460;2023-05-02T11:28:03;100171.00;;;14.31;27.21
44027;BME280;29696;55.698;37.460;2023-05-02T11:30:40;100164.97;;;14.39;27.04
44027;BME280;29696;55.698;37.460;2023-05-02T11:33:29;100159.38;;;14.42;27.38
44027;BME280;29696;55.698;37.460;2023-05-02T11:35:55;100160.53;;;14.30;28.14
44027;BME280;29696;55.698;37.460;2023-05-02T11:38:24;100153.09;;;14.33;27.73
44027;BME280;29696;55.698;37.460;2023-05-02T11:40:53;100146.31;;;14.49;28.56
44027;BME280;29696;55.698;37.460;2023-05-02T11:43:21;100149.25;;;14.55;27.95
44027;BME280;29696;55.698;37.460;2023-05-02T11:45:50;100148.06;;;14.68;29.28
44027;BME280;29696;55.698;37.460;2023-05-02T11:48:18;100148.88;;;14.78;29.03
44027;BME280;29696;55.698;37.460;2023-05-02T11:50:50;100142.19;;;14.92;29.23
44027;BME280;29696;55.698;37.460;2023-05-02T11:53:19;100142.72;;;14.95;28.98
44027;BME280;29696;55.698;37.460;2023-05-02T11:58:37;100124.78;;;14.97;27.60
44027;BME280;29696;55.698;37.460;2023-05-02T12:01:13;100128.78;;;15.11;27.72
44027;BME280;29696;55.698;37.460;2023-05-02T12:03:40;100121.22;;;14.89;28.21
44027;BME280;29696;55.698;37.460;2023-05-02T12:06:11;100128.34;;;14.88;26.96
44027;BME280;29696;55.698;37.460;2023-05-02T12:08:39;100115.25;;;14.77;27.37
44027;BME280;29696;55.698;37.460;2023-05-02T12:11:05;100113.28;;;14.79;28.21
44027;BME280;29696;55.698;37.460;2023-05-02T12:13:32;100114.34;;;14.86;29.93
44027;BME280;29696;55.698;37.460;2023-05-02T12:15:59;100113.91;;;14.91;27.70
44027;BME280;29696;55.698;37.460;2023-05-02T12:18:26;100107.22;;;14.87;28.12
44027;BME280;29696;55.698;37.460;2023-05-02T12:20:54;100113.47;;;14.95;28.79
44027;BME280;29696;55.698;37.460;2023-05-02T12:23:23;100112.31;;;14.98;27.93
44027;BME280;29696;55.698;37.460;2023-05-02T12:25:51;100106.56;;;15.02;27.87
44027;BME280;29696;55.698;37.460;2023-05-02T12:28:18;100105.78;;;15.10;28.37
44027;BME280;29696;55.698;37.460;2023-05-02T12:30:47;100105.72;;;15.20;28.56
44027;BME280;29696;55.698;37.460;2023-05-02T12:33:14;100100.09;;;15.23;28.52
44027;BME280;29696;55.698;37.460;2023-05-02T12:35:42;100101.16;;;15.30;28.05
44027;BME280;29696;55.698;37.460;2023-05-02T12:40:59;100108.22;;;15.39;28.05
44027;BME280;29696;55.698;37.460;2023-05-02T12:43:25;100101.75;;;15.42;28.98
44027;BME280;29696;55.698;37.460;2023-05-02T12:46:08;100095.72;;;15.58;27.71
44027;BME280;29696;55.698;37.460;2023-05-02T12:48:35;100105.25;;;15.42;28.52
44027;BME280;29696;55.698;37.460;2023-05-02T12:51:01;100095.81;;;15.30;27.46
44027;BME280;29696;55.698;37.460;2023-05-02T12:53:41;100094.81;;;15.31;27.43
44027;BME280;29696;55.698;37.460;2023-05-02T12:56:10;100092.94;;;15.05;27.50
44027;BME280;29696;55.698;37.460;2023-05-02T12:58:46;100097.19;;;15.16;28.00
44027;BME280;29696;55.698;37.460;2023-05-02T13:01:14;100091.50;;;15.11;28.58
44027;BME280;29696;55.698;37.460;2023-05-02T13:03:42;100094.22;;;15.19;28.41
44027;BME280;29696;55.698;37.460;2023-05-02T13:06:09;100077.94;;;15.22;28.00
44027;BME280;29696;55.698;37.460;2023-05-02T13:08:36;100075.16;;;15.24;28.73
44027;BME280;29696;55.698;37.460;2023-05-02T13:11:02;100085.19;;;15.30;28.45
44027;BME280;29696;55.698;37.460;2023-05-02T13:13:29;100082.38;;;15.32;28.30
44027;BME280;29696;55.698;37.460;2023-05-02T13:15:57;100078.22;;;15.37;28.74